createdAt,value
2024-02-02T00:02:06.201Z,18.17
2024-02-02T00:04:32.926Z,18.70
2024-02-02T00:06:59.496Z,18.20
2024-02-02T00:09:26.180Z,18.52
2024-02-02T00:11:52.924Z,19.83
2024-02-02T00:14:19.686Z,18.25
2024-02-02T00:16:46.673Z,19.05
2024-02-02T00:19:13.483Z,18.13
2024-02-02T00:21:40.178Z,19.55
2024-02-02T00:24:06.875Z,17.90
2024-02-02T00:26:33.415Z,18.13
2024-02-02T00:29:00.006Z,17.67
2024-02-02T00:31:26.492Z,19.85
2024-02-02T00:33:53.250Z,18.58
2024-02-02T00:36:20.131Z,18.42
2024-02-02T00:38:46.839Z,19.95
2024-02-02T00:41:13.372Z,19.30
2024-02-02T00:43:40.116Z,18.25
2024-02-02T00:46:06.672Z,18.30
2024-02-02T00:48:35.280Z,17.05
2024-02-02T00:51:02.582Z,19.45
2024-02-02T00:53:30.073Z,18.70
2024-02-02T00:55:56.613Z,19.13
2024-02-02T00:58:23.136Z,19.45
2024-02-02T01:00:49.688Z,18.60
2024-02-02T01:03:16.435Z,18.25
2024-02-02T01:05:43.146Z,19.17
2024-02-02T01:08:09.884Z,17.67
2024-02-02T01:10:36.571Z,17.08
2024-02-02T01:13:03.454Z,17.35
2024-02-02T01:15:30.157Z,19.25
2024-02-02T01:17:57.001Z,18.33
2024-02-02T01:20:23.851Z,18.05
2024-02-02T01:22:50.352Z,17.52
2024-02-02T01:25:16.926Z,20.23
2024-02-02T01:27:44.264Z,18.33
2024-02-02T01:30:14.194Z,17.95
2024-02-02T01:32:40.975Z,17.92
2024-02-02T01:35:09.391Z,17.58
2024-02-02T01:37:35.898Z,17.65
2024-02-02T01:40:02.616Z,18.25
2024-02-02T01:42:29.657Z,19.17
2024-02-02T01:44:56.260Z,17.45
2024-02-02T01:47:23.036Z,18.35
2024-02-02T01:49:49.721Z,17.90
2024-02-02T01:52:16.459Z,17.80
2024-02-02T01:54:43.208Z,19.08
2024-02-02T01:57:10.070Z,18.33
2024-02-02T01:59:37.155Z,18.38
2024-02-02T02:02:05.072Z,18.40
2024-02-02T02:04:31.809Z,18.70
2024-02-02T02:06:58.635Z,16.75
2024-02-02T02:09:25.495Z,16.92
2024-02-02T02:11:52.944Z,17.50
2024-02-02T02:14:19.912Z,19.13
2024-02-02T02:16:46.507Z,17.50
2024-02-02T02:19:17.756Z,15.77
2024-02-02T02:21:44.499Z,17.02
2024-02-02T02:24:11.661Z,18.30
2024-02-02T02:26:39.527Z,17.90
2024-02-02T02:29:06.200Z,17.27
2024-02-02T02:31:32.797Z,16.95
2024-02-02T02:33:59.809Z,17.77
2024-02-02T02:36:27.561Z,16.73
2024-02-02T02:38:54.513Z,16.00
2024-02-02T02:41:21.246Z,18.13
2024-02-02T02:43:48.048Z,17.80
2024-02-02T02:46:14.589Z,16.58
2024-02-02T02:48:41.263Z,18.33
2024-02-02T02:51:07.821Z,16.70
2024-02-02T02:53:35.639Z,17.83
2024-02-02T02:56:02.267Z,17.73
2024-02-02T02:58:28.990Z,17.55
2024-02-02T03:01:01.595Z,17.30
2024-02-02T03:03:28.366Z,17.83
2024-02-02T03:05:55.068Z,16.60
2024-02-02T03:08:21.774Z,18.38
2024-02-02T03:10:48.640Z,18.45
2024-02-02T03:13:15.177Z,18.67
2024-02-02T03:15:42.871Z,17.45
2024-02-02T03:18:11.255Z,18.02
2024-02-02T03:20:37.814Z,18.58
2024-02-02T03:23:04.744Z,17.05
2024-02-02T03:25:31.719Z,18.08
2024-02-02T03:27:58.268Z,17.38
2024-02-02T03:30:25.125Z,18.50
2024-02-02T03:32:51.854Z,17.85
2024-02-02T03:35:18.448Z,17.27
2024-02-02T03:37:44.980Z,16.63
2024-02-02T03:40:12.335Z,16.75
2024-02-02T03:42:38.954Z,18.05
2024-02-02T03:45:06.897Z,18.08
2024-02-02T03:47:33.621Z,17.80
2024-02-02T03:50:00.437Z,17.75
2024-02-02T03:52:27.316Z,18.20
2024-02-02T03:54:53.852Z,18.75
2024-02-02T03:57:20.498Z,19.45
2024-02-02T03:59:47.288Z,18.98
2024-02-02T04:02:13.857Z,19.95
2024-02-02T04:04:40.676Z,21.33
2024-02-02T04:07:07.502Z,20.30
2024-02-02T04:09:34.730Z,20.42
2024-02-02T04:12:01.588Z,19.95
2024-02-02T04:14:31.393Z,20.10
2024-02-02T04:16:58.255Z,20.80
2024-02-02T04:19:25.143Z,19.73
2024-02-02T04:21:51.801Z,22.27
2024-02-02T04:24:18.537Z,21.50
2024-02-02T04:26:45.071Z,20.73
2024-02-02T04:29:12.307Z,20.83
2024-02-02T04:31:38.851Z,20.02
2024-02-02T04:34:05.724Z,21.35
2024-02-02T04:36:32.492Z,21.27
2024-02-02T04:38:59.181Z,19.73
2024-02-02T04:41:25.953Z,20.60
2024-02-02T04:43:52.532Z,21.90
2024-02-02T04:46:19.074Z,22.45
2024-02-02T04:48:45.718Z,21.25
2024-02-02T04:51:12.544Z,21.42
2024-02-02T04:53:39.141Z,21.70
2024-02-02T04:56:05.858Z,21.92
2024-02-02T04:58:32.449Z,22.45
2024-02-02T05:00:59.120Z,22.88
2024-02-02T05:03:25.814Z,22.70
2024-02-02T05:05:52.392Z,23.50
2024-02-02T05:08:19.443Z,25.05
2024-02-02T05:10:46.093Z,24.08
2024-02-02T05:13:12.630Z,23.95
2024-02-02T05:15:39.656Z,25.63
2024-02-02T05:18:07.923Z,25.23
2024-02-02T05:20:34.591Z,26.40
2024-02-02T05:23:01.177Z,26.33
2024-02-02T05:25:27.848Z,25.52
2024-02-02T05:27:54.468Z,25.27
2024-02-02T05:30:21.820Z,25.80
2024-02-02T05:32:48.552Z,25.98
2024-02-02T05:35:15.080Z,25.77
2024-02-02T05:37:41.901Z,28.35
2024-02-02T05:40:10.019Z,27.85
2024-02-02T05:42:36.709Z,30.83
2024-02-02T05:45:03.452Z,30.17
2024-02-02T05:47:30.108Z,33.17
2024-02-02T05:49:56.860Z,31.30
2024-02-02T05:52:23.552Z,30.98
2024-02-02T05:54:50.075Z,29.67
2024-02-02T05:57:16.833Z,29.38
2024-02-02T05:59:43.430Z,30.80
2024-02-02T06:02:09.955Z,30.48
2024-02-02T06:04:36.526Z,29.02
2024-02-02T06:07:03.335Z,28.92
2024-02-02T06:09:30.225Z,31.63
2024-02-02T06:11:58.619Z,30.75
2024-02-02T06:14:26.857Z,31.20
2024-02-02T06:16:53.387Z,29.38
2024-02-02T06:19:20.070Z,29.35
2024-02-02T06:21:46.707Z,30.83
2024-02-02T06:24:13.654Z,36.40
2024-02-02T06:26:40.502Z,30.67
2024-02-02T06:29:07.028Z,29.63
2024-02-02T06:31:33.596Z,27.38
2024-02-02T06:34:00.233Z,29.20
2024-02-02T06:36:28.430Z,28.27
2024-02-02T06:38:57.040Z,29.58
2024-02-02T06:41:23.910Z,29.52
2024-02-02T06:43:51.391Z,29.65
2024-02-02T06:46:18.328Z,29.48
2024-02-02T06:48:48.832Z,28.42
2024-02-02T06:51:15.590Z,29.60
2024-02-02T06:53:42.145Z,30.63
2024-02-02T06:56:39.075Z,31.55
2024-02-02T06:59:07.237Z,30.08
2024-02-02T07:01:34.447Z,28.70
2024-02-02T07:04:04.191Z,28.92
2024-02-02T07:06:33.715Z,30.77
2024-02-02T07:09:02.492Z,28.33
2024-02-02T07:11:35.441Z,28.27
2024-02-02T07:14:10.263Z,28.33
2024-02-02T07:16:37.975Z,28.70
2024-02-02T07:19:05.218Z,28.30
2024-02-02T07:21:34.606Z,30.38
2024-02-02T07:24:01.393Z,28.70
2024-02-02T07:26:31.094Z,30.60
2024-02-02T07:28:59.156Z,29.70
2024-02-02T07:31:35.035Z,29.77
2024-02-02T07:34:21.492Z,30.73
2024-02-02T07:36:48.103Z,29.98
2024-02-02T07:39:28.236Z,30.88
2024-02-02T07:44:22.992Z,30.45
2024-02-02T07:46:49.505Z,28.67
2024-02-02T07:49:16.176Z,30.15
2024-02-02T07:51:44.429Z,29.90
2024-02-02T07:54:11.761Z,29.13
2024-02-02T07:56:38.376Z,31.27
2024-02-02T07:59:04.973Z,28.67
2024-02-02T08:01:34.361Z,29.30
2024-02-02T08:04:04.844Z,29.27
2024-02-02T08:06:31.596Z,30.83
2024-02-02T08:08:58.585Z,30.02
2024-02-02T08:11:26.876Z,30.85
2024-02-02T08:13:53.495Z,30.92
2024-02-02T08:16:20.126Z,33.15
2024-02-02T08:18:47.120Z,30.75
2024-02-02T08:21:13.887Z,32.60
2024-02-02T08:23:40.520Z,33.03
2024-02-02T08:26:07.588Z,32.55
2024-02-02T08:28:42.037Z,35.03
2024-02-02T08:31:15.478Z,32.25
2024-02-02T08:33:43.746Z,33.67
2024-02-02T08:36:11.797Z,33.75
2024-02-02T08:38:38.694Z,33.20
2024-02-02T08:41:06.028Z,35.72
2024-02-02T08:43:32.572Z,34.33
2024-02-02T08:46:14.624Z,33.95
2024-02-02T08:48:46.604Z,31.92
2024-02-02T08:51:22.536Z,30.10
2024-02-02T08:53:50.379Z,30.48
2024-02-02T08:56:17.152Z,28.98
2024-02-02T08:58:43.681Z,29.10
2024-02-02T09:01:45.245Z,27.85
2024-02-02T09:04:46.963Z,29.20
2024-02-02T09:07:18.276Z,26.38
2024-02-02T09:09:45.258Z,26.40
2024-02-02T09:12:12.073Z,28.95
2024-02-02T09:14:38.699Z,26.75
2024-02-02T09:17:07.497Z,26.63
2024-02-02T09:19:46.918Z,27.65
2024-02-02T09:22:17.381Z,26.42
2024-02-02T09:27:40.187Z,27.50
2024-02-02T09:30:19.052Z,27.05
2024-02-02T09:32:46.123Z,25.65
2024-02-02T09:35:54.132Z,26.45
2024-02-02T09:38:20.765Z,26.40
2024-02-02T09:41:02.390Z,27.98
2024-02-02T09:44:00.666Z,26.23
2024-02-02T09:47:03.612Z,27.13
2024-02-02T09:49:41.525Z,27.50
2024-02-02T09:52:24.466Z,25.67
2024-02-02T09:55:02.534Z,25.80
2024-02-02T09:58:07.667Z,26.17
2024-02-02T10:00:58.461Z,25.48
2024-02-02T10:03:35.325Z,26.13
2024-02-02T10:06:26.893Z,27.90
2024-02-02T10:09:18.853Z,26.05
2024-02-02T10:12:10.305Z,26.55
2024-02-02T10:15:18.509Z,24.70
2024-02-02T10:18:06.276Z,26.15
2024-02-02T10:20:42.068Z,24.25
2024-02-02T10:23:14.922Z,25.55
2024-02-02T10:25:54.634Z,25.55
2024-02-02T10:28:23.827Z,25.55
2024-02-02T10:31:34.011Z,23.52
2024-02-02T10:36:45.636Z,21.77
2024-02-02T10:39:37.252Z,24.70
2024-02-02T10:42:06.796Z,22.77
2024-02-02T10:44:43.270Z,22.35
2024-02-02T10:47:45.335Z,22.67
2024-02-02T10:50:43.960Z,23.50
2024-02-02T10:53:29.193Z,24.33
2024-02-02T10:56:15.175Z,23.20
2024-02-02T10:59:04.711Z,24.15
2024-02-02T11:01:35.570Z,22.08
2024-02-02T11:04:26.115Z,23.83
2024-02-02T11:07:07.202Z,22.40
2024-02-02T11:09:56.259Z,22.55
2024-02-02T11:12:45.558Z,23.05
2024-02-02T11:15:43.131Z,22.60
2024-02-02T11:18:31.103Z,22.70
2024-02-02T11:21:25.113Z,21.70
2024-02-02T11:24:00.581Z,22.88
2024-02-02T11:26:38.557Z,22.52
2024-02-02T11:29:26.528Z,21.75
2024-02-02T11:32:08.445Z,22.08
2024-02-02T11:34:53.466Z,22.48
2024-02-02T11:37:32.620Z,22.75
2024-02-02T11:40:09.315Z,22.70
2024-02-02T11:42:40.060Z,22.20
2024-02-02T11:45:16.564Z,21.85
2024-02-02T11:48:01.781Z,22.30
2024-02-02T11:50:34.375Z,21.92
2024-02-02T11:53:23.622Z,22.70
2024-02-02T11:55:56.741Z,22.65
2024-02-02T11:58:25.198Z,21.40
2024-02-02T12:01:11.400Z,22.75
2024-02-02T12:04:02.335Z,21.80
2024-02-02T12:06:37.229Z,22.73
2024-02-02T12:09:19.580Z,24.13
2024-02-02T12:11:52.446Z,24.02
2024-02-02T12:14:43.170Z,24.20
2024-02-02T12:17:12.002Z,22.48
2024-02-02T12:19:38.658Z,21.92
2024-02-02T12:22:05.501Z,22.60
2024-02-02T12:24:32.811Z,22.73
2024-02-02T12:26:59.606Z,22.55
2024-02-02T12:29:26.694Z,23.67
2024-02-02T12:31:53.307Z,20.92
2024-02-02T12:34:20.154Z,22.67
2024-02-02T12:36:46.837Z,22.67
2024-02-02T12:39:13.540Z,21.52
2024-02-02T12:41:40.661Z,21.48
2024-02-02T12:44:08.037Z,20.88
2024-02-02T12:46:48.521Z,20.27
2024-02-02T12:49:15.368Z,19.48
2024-02-02T12:51:44.081Z,20.95
2024-02-02T12:54:11.863Z,19.23
2024-02-02T12:56:38.832Z,20.45
2024-02-02T12:59:06.900Z,19.63
2024-02-02T13:01:34.074Z,20.02
2024-02-02T13:04:01.189Z,19.55
2024-02-02T13:06:27.961Z,20.73
2024-02-02T13:08:55.031Z,19.48
2024-02-02T13:11:24.835Z,19.33
2024-02-02T13:13:51.346Z,20.67
2024-02-02T13:16:30.793Z,20.75
2024-02-02T13:18:59.337Z,19.00
2024-02-02T13:21:30.268Z,19.20
2024-02-02T13:23:57.925Z,20.40
2024-02-02T13:26:38.058Z,18.95
2024-02-02T13:29:08.967Z,18.08
2024-02-02T13:31:38.841Z,19.58
2024-02-02T13:34:06.695Z,19.50
2024-02-02T13:36:40.300Z,19.52
2024-02-02T13:39:07.419Z,19.30
2024-02-02T13:41:37.802Z,20.23
2024-02-02T13:44:09.224Z,18.73
2024-02-02T13:46:46.033Z,19.67
2024-02-02T13:49:26.387Z,21.13
2024-02-02T13:54:21.243Z,19.73
2024-02-02T13:56:48.176Z,20.75
2024-02-02T13:59:19.126Z,19.85
2024-02-02T14:01:47.118Z,20.40
2024-02-02T14:04:23.177Z,20.60
2024-02-02T14:06:50.013Z,20.92
2024-02-02T14:09:23.776Z,17.27
2024-02-02T14:11:51.625Z,20.02
2024-02-02T14:14:25.121Z,17.90
2024-02-02T14:16:51.829Z,19.83
2024-02-02T14:19:19.689Z,18.60
2024-02-02T14:21:46.454Z,18.92
2024-02-02T14:24:17.243Z,17.75
2024-02-02T14:26:57.063Z,19.00
2024-02-02T14:29:27.602Z,19.50
2024-02-02T14:31:56.187Z,18.75
2024-02-02T14:34:24.246Z,20.83
2024-02-02T14:36:51.439Z,18.60
2024-02-02T14:39:26.425Z,19.50
2024-02-02T14:41:54.770Z,18.80
2024-02-02T14:44:21.398Z,19.13
2024-02-02T14:46:48.026Z,18.75
2024-02-02T14:49:15.235Z,18.95
2024-02-02T14:51:42.175Z,19.05
2024-02-02T14:54:09.467Z,18.48
2024-02-02T14:56:37.725Z,18.10
2024-02-02T14:59:13.664Z,18.02
2024-02-02T15:01:41.308Z,18.42
2024-02-02T15:04:08.994Z,18.98
2024-02-02T15:06:38.192Z,18.50
2024-02-02T15:09:10.272Z,18.13
2024-02-02T15:11:37.384Z,17.48
2024-02-02T15:14:03.997Z,18.40
2024-02-02T15:16:32.365Z,18.05
2024-02-02T15:18:59.180Z,19.45
2024-02-02T15:21:26.005Z,18.95
2024-02-02T15:23:52.560Z,17.73
2024-02-02T15:26:19.065Z,22.02
2024-02-02T15:28:45.562Z,20.40
2024-02-02T15:31:12.788Z,18.90
2024-02-02T15:33:39.419Z,20.38
2024-02-02T15:36:06.390Z,21.02
2024-02-02T15:38:32.923Z,21.70
2024-02-02T15:41:00.573Z,24.40
2024-02-02T15:43:27.742Z,25.38
2024-02-02T15:45:55.231Z,26.00
2024-02-02T15:48:22.576Z,27.77
2024-02-02T15:50:50.471Z,27.23
2024-02-02T15:53:19.159Z,26.48
2024-02-02T15:55:48.309Z,26.83
2024-02-02T15:58:14.891Z,27.83
2024-02-02T16:00:41.450Z,28.45
2024-02-02T16:03:08.892Z,29.50
2024-02-02T16:05:36.406Z,32.42
2024-02-02T16:08:03.015Z,33.08
2024-02-02T16:10:30.857Z,34.17
2024-02-02T16:13:00.262Z,36.60
2024-02-02T16:15:28.614Z,36.55
2024-02-02T16:17:55.369Z,36.50
2024-02-02T16:20:22.019Z,34.83
2024-02-02T16:22:48.563Z,36.78
2024-02-02T16:25:21.017Z,38.20
2024-02-02T16:27:47.780Z,38.05
2024-02-02T16:30:14.846Z,36.60
2024-02-02T16:32:41.463Z,41.00
2024-02-02T16:35:09.071Z,36.47
2024-02-02T16:37:39.342Z,37.13
2024-02-02T16:40:11.166Z,36.10
2024-02-02T16:42:41.246Z,35.53
2024-02-02T16:45:09.070Z,35.78
2024-02-02T16:47:35.815Z,35.35
2024-02-02T16:50:02.890Z,35.95
2024-02-02T16:52:29.530Z,36.67
2024-02-02T16:54:56.072Z,36.72
2024-02-02T16:57:22.594Z,37.22
2024-02-02T16:59:49.074Z,36.45
2024-02-02T17:02:15.655Z,37.30
2024-02-02T17:04:43.161Z,36.78
2024-02-02T17:07:10.424Z,36.15
2024-02-02T17:09:40.201Z,37.13
2024-02-02T17:12:09.895Z,35.67
2024-02-02T17:14:36.439Z,38.17
2024-02-02T17:17:02.972Z,38.03
2024-02-02T17:19:29.854Z,36.53
2024-02-02T17:21:56.548Z,36.33
2024-02-02T17:24:23.118Z,37.28
2024-02-02T17:26:49.786Z,36.03
2024-02-02T17:29:18.256Z,36.70
2024-02-02T17:31:47.188Z,37.40
2024-02-02T17:34:14.638Z,36.97
2024-02-02T17:36:41.457Z,37.50
2024-02-02T17:39:08.215Z,38.65
2024-02-02T17:41:34.958Z,39.85
2024-02-02T17:44:01.571Z,39.58
2024-02-02T17:46:28.119Z,42.53
2024-02-02T17:48:54.679Z,41.90
2024-02-02T17:51:22.872Z,42.72
2024-02-02T17:53:50.085Z,42.75
2024-02-02T17:56:18.250Z,44.60
2024-02-02T17:58:44.797Z,42.97
2024-02-02T18:01:11.962Z,43.30
2024-02-02T18:03:38.705Z,43.83
2024-02-02T18:06:06.158Z,43.58
2024-02-02T18:08:32.925Z,43.65
2024-02-02T18:11:00.555Z,44.17
2024-02-02T18:13:27.197Z,42.10
2024-02-02T18:15:54.062Z,41.50
2024-02-02T18:18:22.951Z,45.97
2024-02-02T18:20:49.748Z,42.67
2024-02-02T18:23:16.287Z,42.13
2024-02-02T18:25:42.847Z,45.03
2024-02-02T18:28:13.776Z,44.70
2024-02-02T18:30:43.578Z,45.05
2024-02-02T18:33:10.469Z,45.80
2024-02-02T18:35:37.162Z,46.92
2024-02-02T18:38:03.861Z,48.30
2024-02-02T18:40:30.467Z,49.83
2024-02-02T18:42:57.315Z,50.92
2024-02-02T18:45:23.945Z,54.45
2024-02-02T18:47:50.730Z,53.75
2024-02-02T18:50:19.275Z,49.92
2024-02-02T18:52:50.046Z,49.33
2024-02-02T18:55:16.636Z,46.25
2024-02-02T18:57:43.315Z,46.53
2024-02-02T19:00:10.555Z,44.85
2024-02-02T19:02:37.160Z,46.10
2024-02-02T19:05:04.100Z,46.95
2024-02-02T19:07:33.540Z,45.25
2024-02-02T19:10:00.275Z,45.40
2024-02-02T19:12:27.030Z,46.63
2024-02-02T19:14:53.922Z,45.28
2024-02-02T19:17:20.449Z,47.45
2024-02-02T19:19:47.095Z,45.83
2024-02-02T19:22:13.633Z,47.25
2024-02-02T19:24:40.218Z,46.97
2024-02-02T19:27:06.867Z,47.42
2024-02-02T19:29:33.383Z,46.92
2024-02-02T19:31:59.866Z,44.75
2024-02-02T19:34:26.550Z,46.15
2024-02-02T19:36:53.116Z,48.65
2024-02-02T19:39:19.646Z,47.38
2024-02-02T19:41:47.118Z,44.67
2024-02-02T19:44:13.739Z,44.28
2024-02-02T19:46:40.211Z,43.92
2024-02-02T19:49:09.521Z,45.33
2024-02-02T19:51:39.168Z,44.90
2024-02-02T19:54:06.091Z,44.75
2024-02-02T19:56:32.658Z,45.45
2024-02-02T19:58:59.190Z,44.20
2024-02-02T20:01:26.949Z,43.65
2024-02-02T20:03:54.074Z,45.33
2024-02-02T20:06:21.120Z,43.85
2024-02-02T20:08:49.140Z,44.80
2024-02-02T20:11:19.964Z,44.42
2024-02-02T20:13:47.407Z,42.53
2024-02-02T20:16:19.181Z,43.75
2024-02-02T20:18:46.164Z,41.40
2024-02-02T20:21:14.568Z,41.13
2024-02-02T20:23:41.378Z,42.50
2024-02-02T20:26:09.287Z,42.28
2024-02-02T20:28:35.878Z,40.47
2024-02-02T20:31:03.730Z,41.75
2024-02-02T20:33:30.459Z,39.22
2024-02-02T20:35:57.280Z,38.72
2024-02-02T20:38:24.071Z,40.03
2024-02-02T20:40:50.595Z,38.47
2024-02-02T20:43:17.092Z,39.88
2024-02-02T20:45:43.709Z,38.33
2024-02-02T20:48:10.378Z,37.95
2024-02-02T20:50:37.175Z,37.30
2024-02-02T20:53:03.908Z,36.03
2024-02-02T20:55:30.421Z,36.67
2024-02-02T20:58:01.935Z,34.58
2024-02-02T21:00:28.823Z,36.42
2024-02-02T21:02:55.397Z,32.78
2024-02-02T21:05:22.276Z,32.00
2024-02-02T21:07:49.061Z,31.50
2024-02-02T21:10:15.702Z,29.58
2024-02-02T21:12:42.786Z,28.27
2024-02-02T21:15:09.728Z,28.15
2024-02-02T21:17:37.989Z,26.88
2024-02-02T21:20:04.944Z,27.10
2024-02-02T21:22:34.446Z,26.98
2024-02-02T21:25:01.034Z,26.67
2024-02-02T21:27:27.547Z,25.83
2024-02-02T21:29:54.051Z,25.77
2024-02-02T21:32:20.565Z,25.98
2024-02-02T21:34:47.139Z,25.00
2024-02-02T21:37:14.805Z,24.60
2024-02-02T21:39:41.383Z,24.08
2024-02-02T21:42:07.973Z,23.90
2024-02-02T21:44:37.489Z,22.75
2024-02-02T21:47:04.573Z,23.92
2024-02-02T21:49:34.395Z,24.02
2024-02-02T21:52:01.080Z,22.38
2024-02-02T21:54:28.988Z,22.92
2024-02-02T21:56:55.719Z,23.63
2024-02-02T21:59:22.290Z,23.02
2024-02-02T22:01:48.789Z,21.50
2024-02-02T22:04:15.416Z,22.85
2024-02-02T22:06:41.982Z,22.70
2024-02-02T22:09:09.604Z,23.02
2024-02-02T22:11:36.402Z,23.23
2024-02-02T22:14:02.979Z,22.45
2024-02-02T22:16:29.811Z,20.65
2024-02-02T22:18:57.103Z,21.55
2024-02-02T22:21:25.278Z,22.02
2024-02-02T22:23:52.008Z,21.13
2024-02-02T22:26:21.867Z,22.40
2024-02-02T22:28:49.033Z,21.52
2024-02-02T22:31:22.636Z,20.63
2024-02-02T22:33:50.631Z,20.65
2024-02-02T22:36:21.980Z,21.63
2024-02-02T22:38:49.590Z,19.90
2024-02-02T22:41:33.056Z,18.42
2024-02-02T22:44:02.225Z,20.75
2024-02-02T22:46:33.948Z,20.08
2024-02-02T22:49:01.615Z,20.88
2024-02-02T22:51:28.435Z,21.15
2024-02-02T22:53:54.978Z,20.63
2024-02-02T22:56:21.592Z,20.77
2024-02-02T22:58:48.191Z,19.13
2024-02-02T23:01:14.981Z,19.35
2024-02-02T23:03:41.791Z,19.15
2024-02-02T23:06:08.568Z,19.83
2024-02-02T23:08:35.366Z,20.17
2024-02-02T23:11:01.940Z,19.60
2024-02-02T23:13:28.604Z,20.13
2024-02-02T23:15:57.192Z,19.67
2024-02-02T23:18:25.298Z,19.88
2024-02-02T23:20:53.548Z,20.48
2024-02-02T23:23:20.307Z,20.20
2024-02-02T23:25:47.008Z,19.42
2024-02-02T23:28:13.865Z,20.45
2024-02-02T23:30:40.872Z,19.15
2024-02-02T23:33:07.693Z,20.27
2024-02-02T23:35:34.325Z,19.77
2024-02-02T23:38:00.986Z,21.30
2024-02-02T23:40:27.498Z,21.17
2024-02-02T23:42:54.071Z,20.10
2024-02-02T23:45:20.754Z,20.55
2024-02-02T23:47:47.307Z,20.08
2024-02-02T23:50:14.064Z,20.52
2024-02-02T23:52:40.816Z,20.98
2024-02-02T23:55:08.121Z,22.70
2024-02-02T23:57:35.133Z,21.73
